General Wayne A. Downing-Peoria International Airport

Airport
ICAO code: 
KPIA
Summary
ICAO Region: 
NAM
Territory: 
Location: 
Peoria, Illinois,
Coordinates: 
Aerial View: 
40° 39' 51.001" N, 89° 41' 35.002" W
Metar
Observation
KPIA 020854Z 24005KT 10SM CLR 08/02 A2980 RMK AO2 SLP091 T00830022 53002
Station
Peoria, Greater Peoria Regional Airport
Date/Time
2021-12-02 08:54:00
Wind direction
240°
Wind speed
05 kts
Lowest cloud amount
n/a
Temperature
8.3°C
Dew point
2.2°C
Humidity
65%
Weather condition
n/a

Description

General Wayne A. Downing-Peoria International Airport, formerly Greater Peoria Regional Airport, is a joint civil and military (ANG) public use airport located 7 km west of the central business district of Peoria, a city in Peoria County, Illinois.

Climatology

Humid continental climate (Köppen climate classification Dfa) - characterized by four seasons: cold, windy, snowy winters, mild springs, hot, humid summers, and crisp and relatively short autumns. Precipitation reaches its lowest in January and February and peaks in summer and latter half of spring.

Runways

Designator Length Width Surface Rops
4/22 2439 46 ASP Yes/Yes
13/31 3080 46 CON Yes/Yes
Airport map: 
Aerial View: 

SKYbrary Partners:

Safety knowledge contributed by: